sensor_id;sensor_type;location;lat;lon;timestamp;P1;durP1;ratioP1;P2;durP2;ratioP2
75837;SDS011;64480;52.040;113.502;2023-08-21T00:00:43;2.60;;;1.50;;
75837;SDS011;64480;52.040;113.502;2023-08-21T00:04:00;5.45;;;1.80;;
75837;SDS011;64480;52.040;113.502;2023-08-21T00:07:07;2.55;;;1.63;;
75837;SDS011;64480;52.040;113.502;2023-08-21T00:10:13;7.07;;;2.78;;
75837;SDS011;64480;52.040;113.502;2023-08-21T00:13:18;8.73;;;2.03;;
75837;SDS011;64480;52.040;113.502;2023-08-21T00:16:21;8.73;;;1.90;;
75837;SDS011;64480;52.040;113.502;2023-08-21T00:19:30;9.52;;;1.90;;
75837;SDS011;64480;52.040;113.502;2023-08-21T00:22:36;16.58;;;2.33;;
75837;SDS011;64480;52.040;113.502;2023-08-21T00:25:45;88.10;;;7.75;;
75837;SDS011;64480;52.040;113.502;2023-08-21T00:28:50;4.60;;;1.73;;
75837;SDS011;64480;52.040;113.502;2023-08-21T00:31:55;2.83;;;1.48;;
75837;SDS011;64480;52.040;113.502;2023-08-21T00:34:58;6.57;;;0.82;;
75837;SDS011;64480;52.040;113.502;2023-08-21T00:38:04;3.13;;;1.52;;
75837;SDS011;64480;52.040;113.502;2023-08-21T00:41:08;3.78;;;1.15;;
75837;SDS011;64480;52.040;113.502;2023-08-21T00:44:14;5.90;;;1.40;;
75837;SDS011;64480;52.040;113.502;2023-08-21T00:47:18;5.05;;;1.13;;
75837;SDS011;64480;52.040;113.502;2023-08-21T00:50:22;43.35;;;3.20;;
75837;SDS011;64480;52.040;113.502;2023-08-21T00:53:26;7.22;;;0.88;;
75837;SDS011;64480;52.040;113.502;2023-08-21T00:56:29;6.15;;;2.17;;
75837;SDS011;64480;52.040;113.502;2023-08-21T00:59:32;62.00;;;5.47;;
75837;SDS011;64480;52.040;113.502;2023-08-21T01:02:38;13.02;;;2.15;;
75837;SDS011;64480;52.040;113.502;2023-08-21T01:05:47;6.90;;;2.55;;
75837;SDS011;64480;52.040;113.502;2023-08-21T01:08:59;6.63;;;1.27;;
75837;SDS011;64480;52.040;113.502;2023-08-21T01:12:11;10.77;;;1.77;;
75837;SDS011;64480;52.040;113.502;2023-08-21T01:15:23;5.50;;;1.27;;
75837;SDS011;64480;52.040;113.502;2023-08-21T01:18:28;4.70;;;0.73;;
75837;SDS011;64480;52.040;113.502;2023-08-21T01:21:33;2.40;;;0.98;;
75837;SDS011;64480;52.040;113.502;2023-08-21T01:24:42;7.30;;;1.40;;
75837;SDS011;64480;52.040;113.502;2023-08-21T01:27:48;5.55;;;1.27;;
75837;SDS011;64480;52.040;113.502;2023-08-21T01:30:58;3.70;;;1.10;;
75837;SDS011;64480;52.040;113.502;2023-08-21T01:34:09;7.00;;;1.10;;
75837;SDS011;64480;52.040;113.502;2023-08-21T01:37:25;3.92;;;0.93;;
75837;SDS011;64480;52.040;113.502;2023-08-21T01:40:30;2.75;;;1.38;;
75837;SDS011;64480;52.040;113.502;2023-08-21T01:43:40;11.27;;;1.45;;
75837;SDS011;64480;52.040;113.502;2023-08-21T01:46:47;1.77;;;0.90;;
75837;SDS011;64480;52.040;113.502;2023-08-21T01:49:52;7.53;;;1.63;;
75837;SDS011;64480;52.040;113.502;2023-08-21T01:52:58;10.05;;;3.15;;
75837;SDS011;64480;52.040;113.502;2023-08-21T01:56:18;5.10;;;0.95;;
75837;SDS011;64480;52.040;113.502;2023-08-21T01:59:23;5.15;;;1.50;;
75837;SDS011;64480;52.040;113.502;2023-08-21T02:02:41;4.22;;;1.60;;
75837;SDS011;64480;52.040;113.502;2023-08-21T02:05:49;9.55;;;2.53;;
75837;SDS011;64480;52.040;113.502;2023-08-21T02:08:55;6.00;;;1.42;;
75837;SDS011;64480;52.040;113.502;2023-08-21T02:12:14;13.55;;;2.40;;
75837;SDS011;64480;52.040;113.502;2023-08-21T02:15:20;4.78;;;1.60;;
75837;SDS011;64480;52.040;113.502;2023-08-21T02:18:33;2.05;;;1.23;;
75837;SDS011;64480;52.040;113.502;2023-08-21T02:21:50;5.30;;;1.73;;
75837;SDS011;64480;52.040;113.502;2023-08-21T02:25:00;4.28;;;1.20;;
75837;SDS011;64480;52.040;113.502;2023-08-21T02:28:19;3.25;;;1.67;;
75837;SDS011;64480;52.040;113.502;2023-08-21T02:31:36;5.28;;;1.35;;
75837;SDS011;64480;52.040;113.502;2023-08-21T02:34:41;3.00;;;1.15;;
75837;SDS011;64480;52.040;113.502;2023-08-21T02:37:45;2.95;;;1.05;;
75837;SDS011;64480;52.040;113.502;2023-08-21T02:40:49;6.28;;;1.30;;
75837;SDS011;64480;52.040;113.502;2023-08-21T02:43:54;1.83;;;0.93;;
75837;SDS011;64480;52.040;113.502;2023-08-21T02:46:59;2.15;;;1.27;;
75837;SDS011;64480;52.040;113.502;2023-08-21T02:50:06;2.92;;;1.13;;
75837;SDS011;64480;52.040;113.502;2023-08-21T02:53:11;5.55;;;1.48;;
75837;SDS011;64480;52.040;113.502;2023-08-21T02:56:16;3.72;;;1.60;;
75837;SDS011;64480;52.040;113.502;2023-08-21T02:59:20;5.85;;;0.98;;
75837;SDS011;64480;52.040;113.502;2023-08-21T03:02:28;3.75;;;1.10;;
75837;SDS011;64480;52.040;113.502;2023-08-21T03:05:32;3.42;;;1.52;;
75837;SDS011;64480;52.040;113.502;2023-08-21T03:08:37;3.28;;;1.90;;
75837;SDS011;64480;52.040;113.502;2023-08-21T03:11:41;5.90;;;1.30;;
75837;SDS011;64480;52.040;113.502;2023-08-21T03:14:47;3.45;;;1.27;;
75837;SDS011;64480;52.040;113.502;2023-08-21T03:17:51;3.72;;;1.15;;
75837;SDS011;64480;52.040;113.502;2023-08-21T03:20:55;5.38;;;1.00;;
75837;SDS011;64480;52.040;113.502;2023-08-21T03:24:03;5.20;;;1.02;;
75837;SDS011;64480;52.040;113.502;2023-08-21T03:27:10;3.08;;;1.10;;
75837;SDS011;64480;52.040;113.502;2023-08-21T03:30:19;8.68;;;1.88;;
75837;SDS011;64480;52.040;113.502;2023-08-21T03:33:22;7.38;;;1.20;;
75837;SDS011;64480;52.040;113.502;2023-08-21T03:36:29;6.28;;;1.08;;
75837;SDS011;64480;52.040;113.502;2023-08-21T03:39:37;9.50;;;1.80;;
75837;SDS011;64480;52.040;113.502;2023-08-21T03:42:49;5.60;;;1.00;;
75837;SDS011;64480;52.040;113.502;2023-08-21T03:45:55;1.38;;;0.55;;
75837;SDS011;64480;52.040;113.502;2023-08-21T03:49:02;4.28;;;1.30;;
75837;SDS011;64480;52.040;113.502;2023-08-21T03:52:08;3.95;;;1.20;;
75837;SDS011;64480;52.040;113.502;2023-08-21T03:55:25;2.53;;;1.42;;
75837;SDS011;64480;52.040;113.502;2023-08-21T03:58:31;2.28;;;1.38;;
75837;SDS011;64480;52.040;113.502;2023-08-21T04:01:39;2.92;;;0.45;;
75837;SDS011;64480;52.040;113.502;2023-08-21T04:04:45;6.63;;;1.23;;
75837;SDS011;64480;52.040;113.502;2023-08-21T04:07:51;0.98;;;0.40;;
75837;SDS011;64480;52.040;113.502;2023-08-21T04:11:05;5.63;;;1.30;;
75837;SDS011;64480;52.040;113.502;2023-08-21T04:14:12;2.63;;;0.63;;
75837;SDS011;64480;52.040;113.502;2023-08-21T04:17:23;8.27;;;0.90;;
75837;SDS011;64480;52.040;113.502;2023-08-21T04:20:27;2.25;;;0.57;;
75837;SDS011;64480;52.040;113.502;2023-08-21T04:23:41;4.35;;;1.77;;
75837;SDS011;64480;52.040;113.502;2023-08-21T04:27:03;3.03;;;1.52;;
75837;SDS011;64480;52.040;113.502;2023-08-21T04:30:21;0.77;;;0.43;;
75837;SDS011;64480;52.040;113.502;2023-08-21T04:33:38;1.48;;;0.73;;
75837;SDS011;64480;52.040;113.502;2023-08-21T04:36:43;1.73;;;0.50;;
75837;SDS011;64480;52.040;113.502;2023-08-21T04:43:17;1.35;;;0.22;;
75837;SDS011;64480;52.040;113.502;2023-08-21T04:46:37;1.00;;;0.57;;
75837;SDS011;64480;52.040;113.502;2023-08-21T04:49:48;1.30;;;0.52;;
75837;SDS011;64480;52.040;113.502;2023-08-21T04:53:01;3.90;;;0.70;;
75837;SDS011;64480;52.040;113.502;2023-08-21T04:56:06;6.78;;;3.08;;
75837;SDS011;64480;52.040;113.502;2023-08-21T04:59:11;2.13;;;0.95;;
75837;SDS011;64480;52.040;113.502;2023-08-21T05:02:28;7.68;;;2.55;;
75837;SDS011;64480;52.040;113.502;2023-08-21T05:05:54;1.90;;;0.32;;
75837;SDS011;64480;52.040;113.502;2023-08-21T05:09:01;1.73;;;0.30;;
75837;SDS011;64480;52.040;113.502;2023-08-21T05:12:08;1.38;;;0.30;;
75837;SDS011;64480;52.040;113.502;2023-08-21T05:15:25;2.72;;;0.30;;
75837;SDS011;64480;52.040;113.502;2023-08-21T05:18:30;2.85;;;0.60;;
75837;SDS011;64480;52.040;113.502;2023-08-21T05:21:37;0.82;;;0.30;;
75837;SDS011;64480;52.040;113.502;2023-08-21T05:24:43;3.95;;;1.13;;
75837;SDS011;64480;52.040;113.502;2023-08-21T05:27:59;2.53;;;0.88;;
75837;SDS011;64480;52.040;113.502;2023-08-21T05:31:03;1.33;;;0.40;;
75837;SDS011;64480;52.040;113.502;2023-08-21T05:34:19;1.48;;;0.40;;
75837;SDS011;64480;52.040;113.502;2023-08-21T05:37:30;1.40;;;0.52;;
75837;SDS011;64480;52.040;113.502;2023-08-21T05:40:40;1.27;;;0.80;;
75837;SDS011;64480;52.040;113.502;2023-08-21T05:43:45;1.77;;;0.63;;
75837;SDS011;64480;52.040;113.502;2023-08-21T05:46:51;2.70;;;0.73;;
75837;SDS011;64480;52.040;113.502;2023-08-21T05:49:55;0.68;;;0.43;;
75837;SDS011;64480;52.040;113.502;2023-08-21T05:52:59;2.30;;;0.80;;
75837;SDS011;64480;52.040;113.502;2023-08-21T05:56:08;1.73;;;0.50;;
75837;SDS011;64480;52.040;113.502;2023-08-21T05:59:26;6.07;;;1.00;;
75837;SDS011;64480;52.040;113.502;2023-08-21T06:02:37;0.45;;;0.28;;
75837;SDS011;64480;52.040;113.502;2023-08-21T06:06:22;3.20;;;1.17;;
75837;SDS011;64480;52.040;113.502;2023-08-21T06:09:41;2.47;;;0.77;;
75837;SDS011;64480;52.040;113.502;2023-08-21T06:13:28;2.42;;;1.42;;
75837;SDS011;64480;52.040;113.502;2023-08-21T06:16:35;3.25;;;0.80;;
75837;SDS011;64480;52.040;113.502;2023-08-21T06:19:53;6.57;;;1.33;;
75837;SDS011;64480;52.040;113.502;2023-08-21T06:23:10;3.25;;;0.98;;
75837;SDS011;64480;52.040;113.502;2023-08-21T06:26:28;2.40;;;1.20;;
75837;SDS011;64480;52.040;113.502;2023-08-21T06:29:39;4.07;;;1.10;;
75837;SDS011;64480;52.040;113.502;2023-08-21T06:32:56;2.05;;;0.88;;
75837;SDS011;64480;52.040;113.502;2023-08-21T06:36:01;6.35;;;1.40;;
75837;SDS011;64480;52.040;113.502;2023-08-21T06:39:06;4.10;;;1.65;;
75837;SDS011;64480;52.040;113.502;2023-08-21T06:42:11;4.22;;;2.60;;
75837;SDS011;64480;52.040;113.502;2023-08-21T06:45:21;1.95;;;0.98;;
75837;SDS011;64480;52.040;113.502;2023-08-21T06:48:33;2.35;;;0.93;;
75837;SDS011;64480;52.040;113.502;2023-08-21T06:51:39;2.72;;;0.90;;
75837;SDS011;64480;52.040;113.502;2023-08-21T06:54:43;2.05;;;0.93;;
75837;SDS011;64480;52.040;113.502;2023-08-21T06:57:47;7.40;;;1.35;;
75837;SDS011;64480;52.040;113.502;2023-08-21T07:00:53;5.80;;;1.40;;
75837;SDS011;64480;52.040;113.502;2023-08-21T07:03:59;3.53;;;0.85;;
75837;SDS011;64480;52.040;113.502;2023-08-21T07:07:03;2.78;;;1.00;;
75837;SDS011;64480;52.040;113.502;2023-08-21T07:10:08;3.97;;;1.17;;
75837;SDS011;64480;52.040;113.502;2023-08-21T07:13:12;1.60;;;0.73;;
75837;SDS011;64480;52.040;113.502;2023-08-21T07:16:15;5.05;;;1.17;;
75837;SDS011;64480;52.040;113.502;2023-08-21T07:19:18;1.63;;;0.70;;
75837;SDS011;64480;52.040;113.502;2023-08-21T07:22:23;1.58;;;0.70;;
75837;SDS011;64480;52.040;113.502;2023-08-21T07:25:28;3.33;;;1.20;;
75837;SDS011;64480;52.040;113.502;2023-08-21T07:28:32;5.38;;;2.08;;
75837;SDS011;64480;52.040;113.502;2023-08-21T07:31:37;7.55;;;1.73;;
75837;SDS011;64480;52.040;113.502;2023-08-21T07:34:42;3.95;;;1.30;;
75837;SDS011;64480;52.040;113.502;2023-08-21T07:37:47;7.35;;;4.65;;
75837;SDS011;64480;52.040;113.502;2023-08-21T07:40:50;2.40;;;1.10;;
75837;SDS011;64480;52.040;113.502;2023-08-21T07:43:55;1.90;;;0.90;;
75837;SDS011;64480;52.040;113.502;2023-08-21T07:47:00;3.55;;;1.45;;
75837;SDS011;64480;52.040;113.502;2023-08-21T07:50:04;7.03;;;1.38;;
75837;SDS011;64480;52.040;113.502;2023-08-21T07:53:10;3.03;;;0.88;;
75837;SDS011;64480;52.040;113.502;2023-08-21T07:56:13;8.55;;;0.98;;
75837;SDS011;64480;52.040;113.502;2023-08-21T07:59:17;3.42;;;0.75;;
75837;SDS011;64480;52.040;113.502;2023-08-21T08:02:23;8.13;;;0.80;;
75837;SDS011;64480;52.040;113.502;2023-08-21T08:05:28;5.18;;;1.52;;
75837;SDS011;64480;52.040;113.502;2023-08-21T08:08:34;4.18;;;0.88;;
75837;SDS011;64480;52.040;113.502;2023-08-21T08:11:39;0.90;;;0.50;;
75837;SDS011;64480;52.040;113.502;2023-08-21T08:14:44;2.13;;;0.73;;
75837;SDS011;64480;52.040;113.502;2023-08-21T08:17:48;5.45;;;2.63;;
75837;SDS011;64480;52.040;113.502;2023-08-21T08:20:56;3.70;;;1.42;;
75837;SDS011;64480;52.040;113.502;2023-08-21T08:24:01;2.45;;;1.38;;
75837;SDS011;64480;52.040;113.502;2023-08-21T08:27:06;3.22;;;1.38;;
75837;SDS011;64480;52.040;113.502;2023-08-21T08:30:10;7.32;;;1.30;;
75837;SDS011;64480;52.040;113.502;2023-08-21T08:33:15;6.70;;;1.55;;
75837;SDS011;64480;52.040;113.502;2023-08-21T08:36:18;4.88;;;2.30;;
75837;SDS011;64480;52.040;113.502;2023-08-21T08:39:23;4.35;;;1.67;;
75837;SDS011;64480;52.040;113.502;2023-08-21T08:42:28;4.03;;;1.40;;
75837;SDS011;64480;52.040;113.502;2023-08-21T08:45:32;7.65;;;1.20;;
75837;SDS011;64480;52.040;113.502;2023-08-21T08:48:36;5.65;;;3.05;;
75837;SDS011;64480;52.040;113.502;2023-08-21T08:51:43;5.28;;;1.25;;
75837;SDS011;64480;52.040;113.502;2023-08-21T08:54:49;2.97;;;1.67;;
75837;SDS011;64480;52.040;113.502;2023-08-21T08:57:53;5.63;;;2.03;;
75837;SDS011;64480;52.040;113.502;2023-08-21T09:00:57;6.47;;;2.30;;
75837;SDS011;64480;52.040;113.502;2023-08-21T09:04:07;5.53;;;2.42;;
75837;SDS011;64480;52.040;113.502;2023-08-21T09:07:12;5.13;;;1.70;;
75837;SDS011;64480;52.040;113.502;2023-08-21T09:10:15;3.83;;;1.80;;
75837;SDS011;64480;52.040;113.502;2023-08-21T09:13:19;5.43;;;2.20;;
75837;SDS011;64480;52.040;113.502;2023-08-21T09:16:23;3.80;;;1.80;;
75837;SDS011;64480;52.040;113.502;2023-08-21T09:19:28;4.53;;;1.58;;
75837;SDS011;64480;52.040;113.502;2023-08-21T09:22:34;4.90;;;1.70;;
75837;SDS011;64480;52.040;113.502;2023-08-21T09:25:39;3.75;;;1.15;;
75837;SDS011;64480;52.040;113.502;2023-08-21T09:28:45;3.50;;;1.55;;
75837;SDS011;64480;52.040;113.502;2023-08-21T09:31:58;4.70;;;1.42;;
75837;SDS011;64480;52.040;113.502;2023-08-21T09:35:04;2.65;;;1.50;;
75837;SDS011;64480;52.040;113.502;2023-08-21T09:38:08;1.30;;;1.00;;
75837;SDS011;64480;52.040;113.502;2023-08-21T09:41:14;2.92;;;1.48;;
75837;SDS011;64480;52.040;113.502;2023-08-21T09:44:22;2.97;;;1.30;;
75837;SDS011;64480;52.040;113.502;2023-08-21T09:47:26;1.70;;;0.75;;
75837;SDS011;64480;52.040;113.502;2023-08-21T09:50:31;3.88;;;1.27;;
75837;SDS011;64480;52.040;113.502;2023-08-21T09:53:36;3.55;;;1.80;;
75837;SDS011;64480;52.040;113.502;2023-08-21T09:56:40;3.03;;;1.27;;
75837;SDS011;64480;52.040;113.502;2023-08-21T09:59:44;1.30;;;0.90;;
75837;SDS011;64480;52.040;113.502;2023-08-21T10:02:51;2.78;;;1.33;;
75837;SDS011;64480;52.040;113.502;2023-08-21T10:05:58;3.85;;;1.58;;
75837;SDS011;64480;52.040;113.502;2023-08-21T10:09:02;2.80;;;1.52;;
75837;SDS011;64480;52.040;113.502;2023-08-21T10:12:08;2.25;;;1.40;;
75837;SDS011;64480;52.040;113.502;2023-08-21T10:15:12;2.60;;;1.50;;
75837;SDS011;64480;52.040;113.502;2023-08-21T10:18:20;2.05;;;1.02;;
75837;SDS011;64480;52.040;113.502;2023-08-21T10:21:29;1.55;;;1.08;;
75837;SDS011;64480;52.040;113.502;2023-08-21T10:24:41;1.98;;;1.20;;
75837;SDS011;64480;52.040;113.502;2023-08-21T10:27:45;3.08;;;1.20;;
75837;SDS011;64480;52.040;113.502;2023-08-21T10:30:50;4.97;;;2.10;;
75837;SDS011;64480;52.040;113.502;2023-08-21T10:33:54;5.95;;;1.50;;
75837;SDS011;64480;52.040;113.502;2023-08-21T10:37:03;7.97;;;1.45;;
75837;SDS011;64480;52.040;113.502;2023-08-21T10:40:08;5.22;;;1.27;;
75837;SDS011;64480;52.040;113.502;2023-08-21T10:43:40;5.60;;;1.95;;
75837;SDS011;64480;52.040;113.502;2023-08-21T10:46:52;4.50;;;2.13;;
75837;SDS011;64480;52.040;113.502;2023-08-21T10:49:58;2.95;;;1.50;;
75837;SDS011;64480;52.040;113.502;2023-08-21T10:53:05;4.40;;;2.70;;
75837;SDS011;64480;52.040;113.502;2023-08-21T10:56:10;4.50;;;1.88;;
75837;SDS011;64480;52.040;113.502;2023-08-21T10:59:13;6.05;;;2.38;;
75837;SDS011;64480;52.040;113.502;2023-08-21T11:02:17;5.97;;;2.53;;
75837;SDS011;64480;52.040;113.502;2023-08-21T11:05:21;3.67;;;2.03;;
75837;SDS011;64480;52.040;113.502;2023-08-21T11:08:25;4.82;;;1.63;;
75837;SDS011;64480;52.040;113.502;2023-08-21T11:11:30;9.63;;;3.25;;
75837;SDS011;64480;52.040;113.502;2023-08-21T11:14:34;4.50;;;2.42;;
75837;SDS011;64480;52.040;113.502;2023-08-21T11:17:38;7.25;;;2.45;;
75837;SDS011;64480;52.040;113.502;2023-08-21T11:20:42;4.95;;;1.95;;
75837;SDS011;64480;52.040;113.502;2023-08-21T11:23:46;2.58;;;1.38;;
75837;SDS011;64480;52.040;113.502;2023-08-21T11:26:50;3.28;;;1.67;;
75837;SDS011;64480;52.040;113.502;2023-08-21T11:29:54;2.28;;;1.50;;
75837;SDS011;64480;52.040;113.502;2023-08-21T11:33:05;2.15;;;1.30;;
75837;SDS011;64480;52.040;113.502;2023-08-21T11:36:19;2.88;;;1.35;;
75837;SDS011;64480;52.040;113.502;2023-08-21T11:39:38;2.30;;;1.30;;
75837;SDS011;64480;52.040;113.502;2023-08-21T11:42:43;3.78;;;1.00;;
75837;SDS011;64480;52.040;113.502;2023-08-21T11:45:47;4.50;;;1.70;;
75837;SDS011;64480;52.040;113.502;2023-08-21T11:49:00;3.00;;;1.27;;
75837;SDS011;64480;52.040;113.502;2023-08-21T11:52:05;5.05;;;1.80;;
75837;SDS011;64480;52.040;113.502;2023-08-21T11:55:12;6.22;;;2.50;;
75837;SDS011;64480;52.040;113.502;2023-08-21T11:58:57;9.32;;;2.95;;
75837;SDS011;64480;52.040;113.502;2023-08-21T12:02:23;4.20;;;2.63;;
75837;SDS011;64480;52.040;113.502;2023-08-21T12:05:45;5.97;;;2.50;;
75837;SDS011;64480;52.040;113.502;2023-08-21T12:08:49;5.78;;;3.03;;
75837;SDS011;64480;52.040;113.502;2023-08-21T12:11:57;6.70;;;4.03;;
75837;SDS011;64480;52.040;113.502;2023-08-21T12:15:23;7.68;;;4.28;;
75837;SDS011;64480;52.040;113.502;2023-08-21T12:18:28;16.33;;;4.07;;
75837;SDS011;64480;52.040;113.502;2023-08-21T12:21:46;6.93;;;3.30;;
75837;SDS011;64480;52.040;113.502;2023-08-21T12:25:04;5.70;;;2.55;;
75837;SDS011;64480;52.040;113.502;2023-08-21T12:28:23;4.47;;;2.40;;
75837;SDS011;64480;52.040;113.502;2023-08-21T12:31:28;7.30;;;4.13;;
75837;SDS011;64480;52.040;113.502;2023-08-21T12:34:48;5.97;;;3.83;;
75837;SDS011;64480;52.040;113.502;2023-08-21T12:37:56;4.22;;;2.22;;
75837;SDS011;64480;52.040;113.502;2023-08-21T12:41:15;12.23;;;6.10;;
75837;SDS011;64480;52.040;113.502;2023-08-21T12:44:22;3.33;;;1.80;;
75837;SDS011;64480;52.040;113.502;2023-08-21T12:47:28;5.60;;;2.45;;
75837;SDS011;64480;52.040;113.502;2023-08-21T12:53:47;4.88;;;2.78;;
75837;SDS011;64480;52.040;113.502;2023-08-21T12:57:04;6.75;;;2.80;;
75837;SDS011;64480;52.040;113.502;2023-08-21T13:00:10;6.85;;;3.53;;
75837;SDS011;64480;52.040;113.502;2023-08-21T13:03:16;6.82;;;3.80;;
75837;SDS011;64480;52.040;113.502;2023-08-21T13:06:43;7.47;;;3.83;;
75837;SDS011;64480;52.040;113.502;2023-08-21T13:10:00;9.30;;;3.70;;
75837;SDS011;64480;52.040;113.502;2023-08-21T13:13:36;12.23;;;7.95;;
75837;SDS011;64480;52.040;113.502;2023-08-21T13:16:54;11.50;;;4.55;;
75837;SDS011;64480;52.040;113.502;2023-08-21T13:20:11;9.02;;;4.60;;
75837;SDS011;64480;52.040;113.502;2023-08-21T13:23:19;9.27;;;4.30;;
75837;SDS011;64480;52.040;113.502;2023-08-21T13:26:33;10.18;;;4.88;;
75837;SDS011;64480;52.040;113.502;2023-08-21T13:29:40;7.40;;;3.20;;
75837;SDS011;64480;52.040;113.502;2023-08-21T13:36:03;10.95;;;5.05;;
75837;SDS011;64480;52.040;113.502;2023-08-21T13:39:14;6.32;;;3.92;;
75837;SDS011;64480;52.040;113.502;2023-08-21T13:42:33;8.15;;;3.95;;
75837;SDS011;64480;52.040;113.502;2023-08-21T13:45:54;9.07;;;3.92;;
75837;SDS011;64480;52.040;113.502;2023-08-21T13:49:11;5.93;;;4.03;;
75837;SDS011;64480;52.040;113.502;2023-08-21T13:52:28;9.32;;;4.20;;
75837;SDS011;64480;52.040;113.502;2023-08-21T13:55:45;7.47;;;4.00;;
75837;SDS011;64480;52.040;113.502;2023-08-21T13:58:53;7.38;;;3.88;;
75837;SDS011;64480;52.040;113.502;2023-08-21T14:02:11;6.88;;;3.72;;
75837;SDS011;64480;52.040;113.502;2023-08-21T14:05:15;8.75;;;4.20;;
75837;SDS011;64480;52.040;113.502;2023-08-21T14:08:25;8.50;;;3.38;;
75837;SDS011;64480;52.040;113.502;2023-08-21T14:11:30;7.28;;;3.45;;
75837;SDS011;64480;52.040;113.502;2023-08-21T14:14:37;7.05;;;2.80;;
75837;SDS011;64480;52.040;113.502;2023-08-21T14:17:54;8.48;;;3.20;;
75837;SDS011;64480;52.040;113.502;2023-08-21T14:24:18;6.28;;;3.65;;
75837;SDS011;64480;52.040;113.502;2023-08-21T14:27:30;7.75;;;3.72;;
75837;SDS011;64480;52.040;113.502;2023-08-21T14:30:41;7.35;;;3.45;;
75837;SDS011;64480;52.040;113.502;2023-08-21T14:34:00;6.32;;;3.38;;
75837;SDS011;64480;52.040;113.502;2023-08-21T14:37:08;7.38;;;3.63;;
75837;SDS011;64480;52.040;113.502;2023-08-21T14:43:22;9.75;;;4.15;;
75837;SDS011;64480;52.040;113.502;2023-08-21T14:46:39;5.90;;;3.38;;
75837;SDS011;64480;52.040;113.502;2023-08-21T14:49:56;9.88;;;5.35;;
75837;SDS011;64480;52.040;113.502;2023-08-21T14:53:14;6.07;;;3.75;;
75837;SDS011;64480;52.040;113.502;2023-08-21T14:56:19;14.40;;;6.32;;
75837;SDS011;64480;52.040;113.502;2023-08-21T14:59:36;12.90;;;3.65;;
75837;SDS011;64480;52.040;113.502;2023-08-21T15:02:53;8.25;;;2.88;;
75837;SDS011;64480;52.040;113.502;2023-08-21T15:06:10;5.53;;;3.75;;
75837;SDS011;64480;52.040;113.502;2023-08-21T15:09:16;5.88;;;3.30;;
75837;SDS011;64480;52.040;113.502;2023-08-21T15:12:21;5.32;;;3.00;;
75837;SDS011;64480;52.040;113.502;2023-08-21T15:15:26;8.52;;;3.22;;
75837;SDS011;64480;52.040;113.502;2023-08-21T15:18:29;8.43;;;3.25;;
75837;SDS011;64480;52.040;113.502;2023-08-21T15:21:33;4.45;;;2.38;;
75837;SDS011;64480;52.040;113.502;2023-08-21T15:24:37;6.78;;;3.10;;
75837;SDS011;64480;52.040;113.502;2023-08-21T15:27:45;7.10;;;2.80;;
75837;SDS011;64480;52.040;113.502;2023-08-21T15:30:50;5.05;;;2.38;;
75837;SDS011;64480;52.040;113.502;2023-08-21T15:33:56;5.15;;;2.05;;
75837;SDS011;64480;52.040;113.502;2023-08-21T15:37:01;3.58;;;1.75;;
75837;SDS011;64480;52.040;113.502;2023-08-21T15:40:07;4.95;;;1.58;;
75837;SDS011;64480;52.040;113.502;2023-08-21T15:43:25;3.00;;;1.92;;
75837;SDS011;64480;52.040;113.502;2023-08-21T15:46:29;2.90;;;1.92;;
75837;SDS011;64480;52.040;113.502;2023-08-21T15:49:35;5.05;;;1.75;;
75837;SDS011;64480;52.040;113.502;2023-08-21T15:52:43;4.57;;;1.92;;
75837;SDS011;64480;52.040;113.502;2023-08-21T15:55:47;4.68;;;2.08;;
75837;SDS011;64480;52.040;113.502;2023-08-21T15:59:04;5.80;;;2.00;;
75837;SDS011;64480;52.040;113.502;2023-08-21T16:02:21;4.00;;;1.60;;
75837;SDS011;64480;52.040;113.502;2023-08-21T16:05:39;3.38;;;1.67;;
75837;SDS011;64480;52.040;113.502;2023-08-21T16:08:43;2.40;;;1.55;;
75837;SDS011;64480;52.040;113.502;2023-08-21T16:12:00;7.53;;;1.92;;
75837;SDS011;64480;52.040;113.502;2023-08-21T16:15:07;3.42;;;1.20;;
75837;SDS011;64480;52.040;113.502;2023-08-21T16:18:14;3.28;;;1.42;;
75837;SDS011;64480;52.040;113.502;2023-08-21T16:21:28;2.80;;;1.70;;
75837;SDS011;64480;52.040;113.502;2023-08-21T16:24:32;2.10;;;1.25;;
75837;SDS011;64480;52.040;113.502;2023-08-21T16:27:37;3.38;;;2.00;;
75837;SDS011;64480;52.040;113.502;2023-08-21T16:30:41;2.67;;;1.15;;
75837;SDS011;64480;52.040;113.502;2023-08-21T16:33:58;5.65;;;1.27;;
75837;SDS011;64480;52.040;113.502;2023-08-21T16:37:03;3.50;;;1.38;;
75837;SDS011;64480;52.040;113.502;2023-08-21T16:40:08;4.60;;;1.65;;
75837;SDS011;64480;52.040;113.502;2023-08-21T16:43:13;3.30;;;1.60;;
75837;SDS011;64480;52.040;113.502;2023-08-21T16:46:17;2.92;;;1.88;;
75837;SDS011;64480;52.040;113.502;2023-08-21T16:49:20;4.25;;;1.60;;
75837;SDS011;64480;52.040;113.502;2023-08-21T16:52:25;2.85;;;1.40;;
75837;SDS011;64480;52.040;113.502;2023-08-21T16:55:29;2.97;;;1.08;;
75837;SDS011;64480;52.040;113.502;2023-08-21T16:58:33;3.58;;;1.60;;
75837;SDS011;64480;52.040;113.502;2023-08-21T17:01:38;3.28;;;1.50;;
75837;SDS011;64480;52.040;113.502;2023-08-21T17:04:43;2.50;;;1.20;;
75837;SDS011;64480;52.040;113.502;2023-08-21T17:07:46;1.58;;;1.08;;
75837;SDS011;64480;52.040;113.502;2023-08-21T17:10:50;4.90;;;1.60;;
75837;SDS011;64480;52.040;113.502;2023-08-21T17:13:55;1.75;;;1.08;;
75837;SDS011;64480;52.040;113.502;2023-08-21T17:16:59;2.63;;;1.10;;
75837;SDS011;64480;52.040;113.502;2023-08-21T17:20:04;3.78;;;1.00;;
75837;SDS011;64480;52.040;113.502;2023-08-21T17:23:10;5.57;;;1.00;;
75837;SDS011;64480;52.040;113.502;2023-08-21T17:26:15;4.50;;;1.20;;
75837;SDS011;64480;52.040;113.502;2023-08-21T17:29:24;2.20;;;0.88;;
75837;SDS011;64480;52.040;113.502;2023-08-21T17:32:27;3.72;;;0.80;;
75837;SDS011;64480;52.040;113.502;2023-08-21T17:35:30;2.50;;;1.48;;
75837;SDS011;64480;52.040;113.502;2023-08-21T17:38:37;4.63;;;1.13;;
75837;SDS011;64480;52.040;113.502;2023-08-21T17:41:42;1.88;;;1.08;;
75837;SDS011;64480;52.040;113.502;2023-08-21T17:44:47;2.10;;;1.05;;
75837;SDS011;64480;52.040;113.502;2023-08-21T17:47:51;5.28;;;1.00;;
75837;SDS011;64480;52.040;113.502;2023-08-21T17:50:54;2.35;;;0.93;;
75837;SDS011;64480;52.040;113.502;2023-08-21T17:53:58;2.72;;;0.80;;
75837;SDS011;64480;52.040;113.502;2023-08-21T17:57:02;5.22;;;0.95;;
75837;SDS011;64480;52.040;113.502;2023-08-21T18:00:07;1.40;;;0.95;;
75837;SDS011;64480;52.040;113.502;2023-08-21T18:03:12;3.50;;;1.02;;
75837;SDS011;64480;52.040;113.502;2023-08-21T18:06:16;4.35;;;0.90;;
75837;SDS011;64480;52.040;113.502;2023-08-21T18:09:27;2.08;;;0.98;;
75837;SDS011;64480;52.040;113.502;2023-08-21T18:12:31;1.38;;;0.93;;
75837;SDS011;64480;52.040;113.502;2023-08-21T18:15:36;3.20;;;0.90;;
75837;SDS011;64480;52.040;113.502;2023-08-21T18:18:40;2.03;;;0.60;;
75837;SDS011;64480;52.040;113.502;2023-08-21T18:21:45;1.88;;;0.80;;
75837;SDS011;64480;52.040;113.502;2023-08-21T18:24:49;2.83;;;1.00;;
75837;SDS011;64480;52.040;113.502;2023-08-21T18:27:55;3.08;;;1.17;;
75837;SDS011;64480;52.040;113.502;2023-08-21T18:30:59;1.63;;;0.80;;
75837;SDS011;64480;52.040;113.502;2023-08-21T18:34:04;2.33;;;0.80;;
75837;SDS011;64480;52.040;113.502;2023-08-21T18:37:08;1.50;;;0.85;;